默认 日期 大小 文件数 浏览量 最新下载 xml
-417磁力链接相关资源由用户搜索指令自动获取,结果来源于网络,本站不存储任何资料,亦不承担任何责任,请于24小时内删除,搜索到3832个磁力,用时4ms。
    {"Osho": {"Osho_-_Zileia.pdf": 9572491, "Osho_-_Apo_ti_monaxia_sti_monaxikotita.pdf": 9561424}, "Moliere": {"Moliere_-_Don_Zuan.pdf": 1557306, "Moliere_-_Asillogistos.pdf": 5814564, "Moliere_-_Misanthropos.pdf": 625540, "Moliere_-_O_filargiros.pdf": ...
创建时间: 2018-11-05 03:53:17 大小:3.27 GB 文件数量:417 热度:13 最近下载:2025-04-22 00:51:02
    {"[Thz.la]saba-417.mp4": 5646848927}
创建时间: 2018-11-05 08:38:03 大小:5.26 GB 文件数量:1 热度:19 最近下载:2025-08-13 01:14:02
    {"Battlestar Galactica - Temporada 4 [DSRRIP][Cap.417][Spanish][newpct.com].avi": 535492608}
创建时间: 2018-11-05 09:17:55 大小:510.69 MB 文件数量:1 热度:22 最近下载:2025-08-02 09:21:05
    {"Instalador_Client_Warface.exe": 641424, "Instalador_Client_Warface-1a.bin": 2099361536, "Instalador_Client_Warface-1b.bin": 2100000000, "Instalador_Client_Warface-1c.bin": 2100000000, "Instalador_Client_Warface-1d.bin": 1507360312}
创建时间: 2018-11-05 23:35:02 大小:7.27 GB 文件数量:5 热度:12 最近下载:2025-03-29 18:13:02
    {"www.NEWPCT.com.url": 877515, "Importante Leer !!.txt": 310, "NLAngeles417 [www.newpct.com].avi": 466792448}
创建时间: 2018-11-06 00:25:15 大小:446.01 MB 文件数量:3 热度:9 最近下载:2025-03-16 21:08:02
    {"75bt.info桃花族.txt": 73, "最新地址获取.url": 48, "[Thz.la]sdmu-417cd1.mp4": 4002814661, "[Thz.la]sdmu-417cd2.mp4": 3577940487, "yeyemo.net色色偶.url": 146, "TaoHuaZu.me桃花族.url": 144, "桃花族地址发布器.chm": 17100}
创建时间: 2018-11-06 00:37:55 大小:7.06 GB 文件数量:7 热度:30 最近下载:2025-09-23 19:49:01
    {"QR-1024.jpg": 57368, "宣傳文件": {"AVDVD 成人光碟.url": 221, "_1024核工厂最新地址.mht": 32086, "❤愛在黑夜001❤18p2p.url": 214, "❤愛在黑夜❤AV 天空.url": 267, "❤愛在黑夜❤HD1080.org.url": 229, "性吧~地址发布器添加.rar": 177132, "台湾辣妹聊天室XC25.COM.gif": 102931, "❤愛在黑夜❤FDZone-Forum.url": 1794, "[日本同 ...
创建时间: 2018-11-06 01:10:03 大小:6.26 GB 文件数量:56 热度:78 最近下载:2025-04-07 09:50:02
    {"Patch": {"file.id.dz": 1358, "suryadewa.com.URL": 48, "DisableActivation.bat": 588, "Read Me First Please !!!.txt": 16574, "Ivt.bluesoleil.8.x.x-patch.exe": 135805}, "Setup": {"x86": {"1028.mst": 167936, "1030.mst": 135168, "1031.mst": 172032, "1033.mst ...
创建时间: 2018-11-06 02:06:31 大小:79.28 MB 文件数量:95 热度:11 最近下载:2025-04-02 04:21:02
    ... ": 6199197, "082713-417-carib-low.wmv": 1073054830, "082713-417-carib-mid.mp4 ... , "❤dioguitar23❤18p2p.url": 214, "082713-417-carib-high_1.mp4": 2701850498, "QQ ...
创建时间: 2018-11-06 02:45:43 大小:4.81 GB 文件数量:16 热度:543 最近下载:2025-10-15 20:56:01
    {"America groups": {"Steely Dan Do It Again.mp3": 12576213, "Thin Lizzy The Sun Goes Down.mp3": 9147164, "Thin Lizzy Whisky In The Jar.mp3": 8320232, "Buffalo Springfield Mr. Soul.mp3": 6881483, "The Band This Wheel's On Fire.mp3": 9360861, "Steely Dan ...
创建时间: 2018-11-06 06:39:48 大小:196.06 MB 文件数量:34 热度:11 最近下载:2025-03-14 21:04:03
    {"MDTM-417A.mp4": 2929756271, "MDTM-417B.mp4": 2922577585}
创建时间: 2018-11-06 12:01:52 大小:5.45 GB 文件数量:2 热度:150 最近下载:2025-08-04 23:34:07
    {"TUmejorTorrent.url": 120, "Importante leer !!!!!.txt": 301, "Vikin720p4x17 [www.newpct1.com].mkv": 1168052873}
创建时间: 2018-11-06 14:35:07 大小:1.09 GB 文件数量:3 热度:8 最近下载:2025-04-10 17:53:01
    {"www.DIVXATOPE.com.url": 877518, "Importante leer !!!!!.txt": 301, "Scan417720p [www.newpct1.com].mkv": 1640519372}
创建时间: 2018-11-06 19:02:30 大小:1.53 GB 文件数量:3 热度:7 最近下载:2025-03-18 09:24:02
    {"TheBlacklist_417_WWW.NEWPCT1.COM.rar": 510128413}
创建时间: 2018-11-06 23:20:06 大小:486.5 MB 文件数量:1 热度:6 最近下载:2025-03-13 02:09:02
    ... 地址.mht": 165204, "082713-417-carib-high_1.mp4": 1361242388, "尘 ...
创建时间: 2018-11-07 00:08:31 大小:1.28 GB 文件数量:26 热度:1052 最近下载:2025-10-15 20:04:02
    ... .net).URL": 231}, "EBOD-417.HD.mp4": 3498807458, "奇摩 ...
创建时间: 2018-11-07 00:31:17 大小:3.29 GB 文件数量:22 热度:55 最近下载:2025-10-16 23:14:02
    {"hnd-417.mp4": 1463781053, "SIS001影视联盟.gif": 36483, "[email protected]": 204, "第一会所 宣传图.jpg": 173821, "第一会所-综合社区.url": 216, "第一会所 宣传 [2012年5月23日更新].txt": 651}
创建时间: 2018-11-07 01:29:09 大小:1.36 GB 文件数量:6 热度:76 最近下载:2025-08-10 23:31:02
    ... .net).URL": 231}, "SW-417~xiapian.xyz.mp4": 3965589248, "奇 ...
创建时间: 2018-11-07 05:07:48 大小:3.75 GB 文件数量:27 热度:48 最近下载:2025-08-07 16:47:04
    {"descargas2020.url": 124, "TuMejorTorrent.url": 129, "tvsinpagar.com.url": 125, "Importante leer !!!!!.txt": 321, "JaneTheVirgin720p_417_descargas2020.mkv": 1638477156}
创建时间: 2018-11-07 07:53:28 大小:1.53 GB 文件数量:5 热度:8 最近下载:2025-06-25 13:31:03
    {"descargas2020.url": 124, "TuMejorTorrent.url": 129, "tvsinpagar.com.url": 125, "Importante leer !!!!!.txt": 321, "TheLastManOnEarth_417_descargas2020.avi": 247771590}
创建时间: 2018-11-07 07:55:38 大小:236.29 MB 文件数量:5 热度:7 最近下载:2025-03-14 03:11:01